sensor_id;sensor_type;location;lat;lon;timestamp;P1;durP1;ratioP1;P2;durP2;ratioP2
10867;SDS011;62667;48.698;8.762;2022-08-19T00:02:03;1.63;;;1.50;;
10867;SDS011;62667;48.698;8.762;2022-08-19T00:04:32;1.80;;;1.63;;
10867;SDS011;62667;48.698;8.762;2022-08-19T00:07:01;1.23;;;1.20;;
10867;SDS011;62667;48.698;8.762;2022-08-19T00:09:31;2.20;;;2.10;;
10867;SDS011;62667;48.698;8.762;2022-08-19T00:11:58;2.77;;;2.57;;
10867;SDS011;62667;48.698;8.762;2022-08-19T00:14:29;2.47;;;2.33;;
10867;SDS011;62667;48.698;8.762;2022-08-19T00:16:57;2.13;;;2.03;;
10867;SDS011;62667;48.698;8.762;2022-08-19T00:19:24;1.53;;;1.43;;
10867;SDS011;62667;48.698;8.762;2022-08-19T00:21:51;2.00;;;1.90;;
10867;SDS011;62667;48.698;8.762;2022-08-19T00:24:19;3.87;;;2.87;;
10867;SDS011;62667;48.698;8.762;2022-08-19T00:26:46;2.90;;;2.57;;
10867;SDS011;62667;48.698;8.762;2022-08-19T00:29:16;1.77;;;1.67;;
10867;SDS011;62667;48.698;8.762;2022-08-19T00:31:46;3.50;;;2.27;;
10867;SDS011;62667;48.698;8.762;2022-08-19T00:34:14;2.27;;;2.07;;
10867;SDS011;62667;48.698;8.762;2022-08-19T00:36:43;1.93;;;1.83;;
10867;SDS011;62667;48.698;8.762;2022-08-19T00:39:11;2.63;;;2.07;;
10867;SDS011;62667;48.698;8.762;2022-08-19T00:41:39;1.63;;;1.47;;
10867;SDS011;62667;48.698;8.762;2022-08-19T00:44:09;1.20;;;1.20;;
10867;SDS011;62667;48.698;8.762;2022-08-19T00:46:39;2.13;;;2.03;;
10867;SDS011;62667;48.698;8.762;2022-08-19T00:49:09;1.97;;;1.87;;
10867;SDS011;62667;48.698;8.762;2022-08-19T00:51:51;2.10;;;1.93;;
10867;SDS011;62667;48.698;8.762;2022-08-19T00:54:21;1.53;;;1.53;;
10867;SDS011;62667;48.698;8.762;2022-08-19T00:56:48;3.33;;;2.53;;
10867;SDS011;62667;48.698;8.762;2022-08-19T00:59:16;4.23;;;3.03;;
10867;SDS011;62667;48.698;8.762;2022-08-19T01:01:44;2.00;;;1.90;;
10867;SDS011;62667;48.698;8.762;2022-08-19T01:04:13;2.90;;;2.70;;
10867;SDS011;62667;48.698;8.762;2022-08-19T01:06:40;1.43;;;1.33;;
10867;SDS011;62667;48.698;8.762;2022-08-19T01:09:09;3.73;;;2.20;;
10867;SDS011;62667;48.698;8.762;2022-08-19T01:11:38;2.03;;;1.93;;
10867;SDS011;62667;48.698;8.762;2022-08-19T01:14:09;3.60;;;2.70;;
10867;SDS011;62667;48.698;8.762;2022-08-19T01:16:37;1.23;;;1.23;;
10867;SDS011;62667;48.698;8.762;2022-08-19T01:19:07;1.90;;;1.70;;
10867;SDS011;62667;48.698;8.762;2022-08-19T01:21:43;2.97;;;2.77;;
10867;SDS011;62667;48.698;8.762;2022-08-19T01:24:18;2.80;;;2.60;;
10867;SDS011;62667;48.698;8.762;2022-08-19T01:26:46;1.43;;;1.43;;
10867;SDS011;62667;48.698;8.762;2022-08-19T01:29:13;2.83;;;2.63;;
10867;SDS011;62667;48.698;8.762;2022-08-19T01:31:40;3.10;;;2.83;;
10867;SDS011;62667;48.698;8.762;2022-08-19T01:34:07;1.87;;;1.77;;
10867;SDS011;62667;48.698;8.762;2022-08-19T01:36:36;2.13;;;2.03;;
10867;SDS011;62667;48.698;8.762;2022-08-19T01:39:09;2.33;;;2.23;;
10867;SDS011;62667;48.698;8.762;2022-08-19T01:41:40;3.40;;;3.00;;
10867;SDS011;62667;48.698;8.762;2022-08-19T01:44:08;1.73;;;1.63;;
10867;SDS011;62667;48.698;8.762;2022-08-19T01:46:36;2.90;;;2.40;;
10867;SDS011;62667;48.698;8.762;2022-08-19T01:49:04;2.97;;;2.73;;
10867;SDS011;62667;48.698;8.762;2022-08-19T01:51:32;2.40;;;2.20;;
10867;SDS011;62667;48.698;8.762;2022-08-19T01:53:59;4.27;;;2.57;;
10867;SDS011;62667;48.698;8.762;2022-08-19T01:56:28;2.17;;;2.07;;
10867;SDS011;62667;48.698;8.762;2022-08-19T01:58:57;1.90;;;1.30;;
10867;SDS011;62667;48.698;8.762;2022-08-19T02:01:30;1.37;;;1.37;;
10867;SDS011;62667;48.698;8.762;2022-08-19T02:03:57;5.97;;;3.47;;
10867;SDS011;62667;48.698;8.762;2022-08-19T02:06:25;3.20;;;3.00;;
10867;SDS011;62667;48.698;8.762;2022-08-19T02:08:55;1.47;;;1.47;;
10867;SDS011;62667;48.698;8.762;2022-08-19T02:11:24;2.63;;;2.43;;
10867;SDS011;62667;48.698;8.762;2022-08-19T02:13:55;1.60;;;1.50;;
10867;SDS011;62667;48.698;8.762;2022-08-19T02:16:23;3.70;;;3.37;;
10867;SDS011;62667;48.698;8.762;2022-08-19T02:18:50;8.23;;;2.50;;
10867;SDS011;62667;48.698;8.762;2022-08-19T02:21:18;4.73;;;2.97;;
10867;SDS011;62667;48.698;8.762;2022-08-19T02:23:46;3.20;;;2.83;;
10867;SDS011;62667;48.698;8.762;2022-08-19T02:26:13;2.53;;;2.37;;
10867;SDS011;62667;48.698;8.762;2022-08-19T02:28:40;2.97;;;2.80;;
10867;SDS011;62667;48.698;8.762;2022-08-19T02:31:09;2.40;;;2.20;;
10867;SDS011;62667;48.698;8.762;2022-08-19T02:33:40;3.00;;;2.80;;
10867;SDS011;62667;48.698;8.762;2022-08-19T02:36:07;2.40;;;2.23;;
10867;SDS011;62667;48.698;8.762;2022-08-19T02:38:35;1.90;;;1.80;;
10867;SDS011;62667;48.698;8.762;2022-08-19T02:41:03;8.60;;;3.00;;
10867;SDS011;62667;48.698;8.762;2022-08-19T02:43:33;4.03;;;2.57;;
10867;SDS011;62667;48.698;8.762;2022-08-19T02:46:02;1.80;;;1.70;;
10867;SDS011;62667;48.698;8.762;2022-08-19T02:48:38;2.93;;;2.73;;
10867;SDS011;62667;48.698;8.762;2022-08-19T02:51:05;3.27;;;3.00;;
10867;SDS011;62667;48.698;8.762;2022-08-19T02:53:32;2.57;;;2.37;;
10867;SDS011;62667;48.698;8.762;2022-08-19T02:56:05;4.00;;;2.17;;
10867;SDS011;62667;48.698;8.762;2022-08-19T02:58:32;9.93;;;1.57;;
10867;SDS011;62667;48.698;8.762;2022-08-19T03:00:59;2.67;;;2.53;;
10867;SDS011;62667;48.698;8.762;2022-08-19T03:03:27;2.03;;;1.87;;
10867;SDS011;62667;48.698;8.762;2022-08-19T03:06:04;2.60;;;2.40;;
10867;SDS011;62667;48.698;8.762;2022-08-19T03:08:33;4.27;;;2.23;;
10867;SDS011;62667;48.698;8.762;2022-08-19T03:11:00;1.40;;;1.40;;
10867;SDS011;62667;48.698;8.762;2022-08-19T03:13:27;1.77;;;1.67;;
10867;SDS011;62667;48.698;8.762;2022-08-19T03:15:54;2.93;;;2.73;;
10867;SDS011;62667;48.698;8.762;2022-08-19T03:18:21;2.00;;;1.90;;
10867;SDS011;62667;48.698;8.762;2022-08-19T03:20:49;3.00;;;1.93;;
10867;SDS011;62667;48.698;8.762;2022-08-19T03:23:22;2.37;;;2.27;;
10867;SDS011;62667;48.698;8.762;2022-08-19T03:25:51;2.50;;;2.37;;
10867;SDS011;62667;48.698;8.762;2022-08-19T03:28:19;2.77;;;2.57;;
10867;SDS011;62667;48.698;8.762;2022-08-19T03:30:56;3.63;;;3.33;;
10867;SDS011;62667;48.698;8.762;2022-08-19T03:33:27;3.00;;;2.70;;
10867;SDS011;62667;48.698;8.762;2022-08-19T03:36:00;3.13;;;2.93;;
10867;SDS011;62667;48.698;8.762;2022-08-19T03:38:29;3.60;;;2.63;;
10867;SDS011;62667;48.698;8.762;2022-08-19T03:40:56;4.57;;;2.43;;
10867;SDS011;62667;48.698;8.762;2022-08-19T03:43:23;2.43;;;2.23;;
10867;SDS011;62667;48.698;8.762;2022-08-19T03:45:59;2.07;;;1.97;;
10867;SDS011;62667;48.698;8.762;2022-08-19T03:48:27;3.03;;;2.80;;
10867;SDS011;62667;48.698;8.762;2022-08-19T03:50:57;4.70;;;2.90;;
10867;SDS011;62667;48.698;8.762;2022-08-19T03:53:25;3.00;;;2.83;;
10867;SDS011;62667;48.698;8.762;2022-08-19T03:55:53;1.83;;;1.77;;
10867;SDS011;62667;48.698;8.762;2022-08-19T03:58:21;3.97;;;3.03;;
10867;SDS011;62667;48.698;8.762;2022-08-19T04:00:48;2.67;;;2.50;;
10867;SDS011;62667;48.698;8.762;2022-08-19T04:03:15;2.47;;;2.37;;
10867;SDS011;62667;48.698;8.762;2022-08-19T04:05:44;3.03;;;2.57;;
10867;SDS011;62667;48.698;8.762;2022-08-19T04:08:12;2.10;;;2.00;;
10867;SDS011;62667;48.698;8.762;2022-08-19T04:10:46;1.70;;;1.60;;
10867;SDS011;62667;48.698;8.762;2022-08-19T04:13:14;3.20;;;2.97;;
10867;SDS011;62667;48.698;8.762;2022-08-19T04:15:41;2.73;;;2.53;;
10867;SDS011;62667;48.698;8.762;2022-08-19T04:18:13;2.60;;;2.40;;
10867;SDS011;62667;48.698;8.762;2022-08-19T04:20:43;1.90;;;1.80;;
10867;SDS011;62667;48.698;8.762;2022-08-19T04:23:11;3.73;;;2.87;;
10867;SDS011;62667;48.698;8.762;2022-08-19T04:25:39;2.57;;;2.47;;
10867;SDS011;62667;48.698;8.762;2022-08-19T04:28:12;2.43;;;2.23;;
10867;SDS011;62667;48.698;8.762;2022-08-19T04:30:40;3.30;;;3.10;;
10867;SDS011;62667;48.698;8.762;2022-08-19T04:33:08;2.67;;;2.47;;
10867;SDS011;62667;48.698;8.762;2022-08-19T04:35:37;3.27;;;2.97;;
10867;SDS011;62667;48.698;8.762;2022-08-19T04:38:04;3.30;;;3.10;;
10867;SDS011;62667;48.698;8.762;2022-08-19T04:40:32;3.47;;;2.97;;
10867;SDS011;62667;48.698;8.762;2022-08-19T04:43:17;2.87;;;2.67;;
10867;SDS011;62667;48.698;8.762;2022-08-19T04:45:45;2.13;;;2.03;;
10867;SDS011;62667;48.698;8.762;2022-08-19T04:48:12;4.27;;;3.87;;
10867;SDS011;62667;48.698;8.762;2022-08-19T04:50:40;3.07;;;2.70;;
10867;SDS011;62667;48.698;8.762;2022-08-19T04:53:08;3.43;;;3.13;;
10867;SDS011;62667;48.698;8.762;2022-08-19T04:55:38;2.40;;;2.30;;
10867;SDS011;62667;48.698;8.762;2022-08-19T04:58:06;3.30;;;3.10;;
10867;SDS011;62667;48.698;8.762;2022-08-19T05:00:37;4.40;;;3.00;;
10867;SDS011;62667;48.698;8.762;2022-08-19T05:03:07;3.13;;;2.93;;
10867;SDS011;62667;48.698;8.762;2022-08-19T05:05:37;3.07;;;2.87;;
10867;SDS011;62667;48.698;8.762;2022-08-19T05:08:05;2.27;;;2.17;;
10867;SDS011;62667;48.698;8.762;2022-08-19T05:10:35;5.07;;;2.93;;
10867;SDS011;62667;48.698;8.762;2022-08-19T05:13:04;3.77;;;2.57;;
10867;SDS011;62667;48.698;8.762;2022-08-19T05:15:34;2.53;;;2.33;;
10867;SDS011;62667;48.698;8.762;2022-08-19T05:18:02;3.57;;;3.37;;
10867;SDS011;62667;48.698;8.762;2022-08-19T05:20:47;3.03;;;2.77;;
10867;SDS011;62667;48.698;8.762;2022-08-19T05:23:32;2.13;;;2.03;;
10867;SDS011;62667;48.698;8.762;2022-08-19T05:25:59;7.57;;;3.83;;
10867;SDS011;62667;48.698;8.762;2022-08-19T05:28:26;5.43;;;3.70;;
10867;SDS011;62667;48.698;8.762;2022-08-19T05:30:53;4.73;;;3.80;;
10867;SDS011;62667;48.698;8.762;2022-08-19T05:33:23;2.97;;;2.67;;
10867;SDS011;62667;48.698;8.762;2022-08-19T05:35:50;3.10;;;2.90;;
10867;SDS011;62667;48.698;8.762;2022-08-19T05:38:17;3.10;;;2.50;;
10867;SDS011;62667;48.698;8.762;2022-08-19T05:40:45;1.90;;;1.80;;
10867;SDS011;62667;48.698;8.762;2022-08-19T05:43:14;4.83;;;3.80;;
10867;SDS011;62667;48.698;8.762;2022-08-19T05:45:42;2.97;;;2.77;;
10867;SDS011;62667;48.698;8.762;2022-08-19T05:48:09;2.73;;;2.53;;
10867;SDS011;62667;48.698;8.762;2022-08-19T05:50:37;5.23;;;4.80;;
10867;SDS011;62667;48.698;8.762;2022-08-19T05:53:06;3.13;;;2.93;;
10867;SDS011;62667;48.698;8.762;2022-08-19T05:55:34;2.67;;;2.57;;
10867;SDS011;62667;48.698;8.762;2022-08-19T05:58:03;2.70;;;2.50;;
10867;SDS011;62667;48.698;8.762;2022-08-19T06:00:32;2.73;;;2.53;;
10867;SDS011;62667;48.698;8.762;2022-08-19T06:03:00;4.50;;;4.10;;
10867;SDS011;62667;48.698;8.762;2022-08-19T06:05:28;2.17;;;2.07;;
10867;SDS011;62667;48.698;8.762;2022-08-19T06:07:56;1.97;;;1.87;;
10867;SDS011;62667;48.698;8.762;2022-08-19T06:10:24;5.53;;;3.13;;
10867;SDS011;62667;48.698;8.762;2022-08-19T06:12:53;3.40;;;2.93;;
10867;SDS011;62667;48.698;8.762;2022-08-19T06:15:21;3.50;;;3.20;;
10867;SDS011;62667;48.698;8.762;2022-08-19T06:17:52;3.30;;;3.07;;
10867;SDS011;62667;48.698;8.762;2022-08-19T06:20:19;5.70;;;3.20;;
10867;SDS011;62667;48.698;8.762;2022-08-19T06:22:46;2.80;;;2.10;;
10867;SDS011;62667;48.698;8.762;2022-08-19T06:25:17;4.00;;;3.70;;
10867;SDS011;62667;48.698;8.762;2022-08-19T06:27:44;3.03;;;2.90;;
10867;SDS011;62667;48.698;8.762;2022-08-19T06:30:11;8.27;;;2.90;;
10867;SDS011;62667;48.698;8.762;2022-08-19T06:32:39;2.87;;;2.67;;
10867;SDS011;62667;48.698;8.762;2022-08-19T06:35:06;2.27;;;2.17;;
10867;SDS011;62667;48.698;8.762;2022-08-19T06:37:33;3.87;;;3.57;;
10867;SDS011;62667;48.698;8.762;2022-08-19T06:40:01;3.20;;;3.00;;
10867;SDS011;62667;48.698;8.762;2022-08-19T06:42:29;3.23;;;3.03;;
10867;SDS011;62667;48.698;8.762;2022-08-19T06:44:56;2.77;;;2.37;;
10867;SDS011;62667;48.698;8.762;2022-08-19T06:47:23;3.33;;;3.13;;
10867;SDS011;62667;48.698;8.762;2022-08-19T06:49:52;2.23;;;2.13;;
10867;SDS011;62667;48.698;8.762;2022-08-19T06:52:27;4.13;;;3.77;;
10867;SDS011;62667;48.698;8.762;2022-08-19T06:54:54;3.00;;;2.80;;
10867;SDS011;62667;48.698;8.762;2022-08-19T06:57:23;3.87;;;2.60;;
10867;SDS011;62667;48.698;8.762;2022-08-19T06:59:51;2.57;;;2.37;;
10867;SDS011;62667;48.698;8.762;2022-08-19T07:02:20;2.90;;;2.70;;
10867;SDS011;62667;48.698;8.762;2022-08-19T07:04:51;5.60;;;3.57;;
10867;SDS011;62667;48.698;8.762;2022-08-19T07:07:19;2.00;;;1.87;;
10867;SDS011;62667;48.698;8.762;2022-08-19T07:09:47;3.07;;;2.87;;
10867;SDS011;62667;48.698;8.762;2022-08-19T07:12:15;3.23;;;2.90;;
10867;SDS011;62667;48.698;8.762;2022-08-19T07:14:42;1.93;;;1.83;;
10867;SDS011;62667;48.698;8.762;2022-08-19T07:17:11;2.07;;;1.93;;
10867;SDS011;62667;48.698;8.762;2022-08-19T07:19:38;2.20;;;2.10;;
10867;SDS011;62667;48.698;8.762;2022-08-19T07:22:07;2.43;;;2.20;;
10867;SDS011;62667;48.698;8.762;2022-08-19T07:24:34;2.23;;;2.13;;
10867;SDS011;62667;48.698;8.762;2022-08-19T07:27:03;2.63;;;2.47;;
10867;SDS011;62667;48.698;8.762;2022-08-19T07:29:34;2.93;;;1.83;;
10867;SDS011;62667;48.698;8.762;2022-08-19T07:32:02;4.30;;;2.47;;
10867;SDS011;62667;48.698;8.762;2022-08-19T07:34:31;3.63;;;2.57;;
10867;SDS011;62667;48.698;8.762;2022-08-19T07:37:04;2.10;;;2.00;;
10867;SDS011;62667;48.698;8.762;2022-08-19T07:39:32;1.90;;;1.80;;
10867;SDS011;62667;48.698;8.762;2022-08-19T07:42:03;2.30;;;2.20;;
10867;SDS011;62667;48.698;8.762;2022-08-19T07:44:32;1.83;;;1.73;;
10867;SDS011;62667;48.698;8.762;2022-08-19T07:47:03;2.50;;;2.33;;
10867;SDS011;62667;48.698;8.762;2022-08-19T07:49:31;2.20;;;2.10;;
10867;SDS011;62667;48.698;8.762;2022-08-19T07:52:01;2.27;;;2.10;;
10867;SDS011;62667;48.698;8.762;2022-08-19T07:54:35;2.83;;;2.63;;
10867;SDS011;62667;48.698;8.762;2022-08-19T07:57:04;1.47;;;1.40;;
10867;SDS011;62667;48.698;8.762;2022-08-19T07:59:32;1.33;;;1.27;;
10867;SDS011;62667;48.698;8.762;2022-08-19T08:01:59;1.47;;;1.37;;
10867;SDS011;62667;48.698;8.762;2022-08-19T08:04:27;2.93;;;2.73;;
10867;SDS011;62667;48.698;8.762;2022-08-19T08:07:13;2.00;;;1.83;;
10867;SDS011;62667;48.698;8.762;2022-08-19T08:09:58;2.40;;;2.30;;
10867;SDS011;62667;48.698;8.762;2022-08-19T08:12:26;1.80;;;1.70;;
10867;SDS011;62667;48.698;8.762;2022-08-19T08:14:57;1.27;;;1.27;;
10867;SDS011;62667;48.698;8.762;2022-08-19T08:17:27;1.97;;;1.87;;
10867;SDS011;62667;48.698;8.762;2022-08-19T08:19:57;1.53;;;1.50;;
10867;SDS011;62667;48.698;8.762;2022-08-19T08:22:25;1.43;;;1.33;;
10867;SDS011;62667;48.698;8.762;2022-08-19T08:25:11;1.17;;;1.17;;
10867;SDS011;62667;48.698;8.762;2022-08-19T08:27:46;2.33;;;2.23;;
10867;SDS011;62667;48.698;8.762;2022-08-19T08:30:16;1.30;;;1.30;;
10867;SDS011;62667;48.698;8.762;2022-08-19T08:32:44;1.40;;;1.37;;
10867;SDS011;62667;48.698;8.762;2022-08-19T08:35:12;2.57;;;2.13;;
10867;SDS011;62667;48.698;8.762;2022-08-19T08:37:41;1.70;;;1.60;;
10867;SDS011;62667;48.698;8.762;2022-08-19T08:40:09;1.83;;;1.73;;
10867;SDS011;62667;48.698;8.762;2022-08-19T08:42:45;1.67;;;1.60;;
10867;SDS011;62667;48.698;8.762;2022-08-19T08:45:19;1.30;;;1.20;;
10867;SDS011;62667;48.698;8.762;2022-08-19T08:47:51;2.20;;;1.83;;
10867;SDS011;62667;48.698;8.762;2022-08-19T08:50:24;2.33;;;2.23;;
10867;SDS011;62667;48.698;8.762;2022-08-19T08:52:56;4.17;;;2.73;;
10867;SDS011;62667;48.698;8.762;2022-08-19T08:55:24;1.60;;;1.50;;
10867;SDS011;62667;48.698;8.762;2022-08-19T08:57:55;1.60;;;1.47;;
10867;SDS011;62667;48.698;8.762;2022-08-19T09:00:27;3.17;;;2.87;;
10867;SDS011;62667;48.698;8.762;2022-08-19T09:02:56;1.17;;;1.07;;
10867;SDS011;62667;48.698;8.762;2022-08-19T09:05:25;1.70;;;1.60;;
10867;SDS011;62667;48.698;8.762;2022-08-19T09:08:00;1.40;;;1.40;;
10867;SDS011;62667;48.698;8.762;2022-08-19T09:10:32;1.23;;;1.23;;
10867;SDS011;62667;48.698;8.762;2022-08-19T09:13:05;1.47;;;1.20;;
10867;SDS011;62667;48.698;8.762;2022-08-19T09:15:40;1.83;;;1.73;;
10867;SDS011;62667;48.698;8.762;2022-08-19T09:18:12;2.60;;;2.40;;
10867;SDS011;62667;48.698;8.762;2022-08-19T09:20:40;1.87;;;1.77;;
10867;SDS011;62667;48.698;8.762;2022-08-19T09:23:08;2.03;;;1.90;;
10867;SDS011;62667;48.698;8.762;2022-08-19T09:25:36;2.20;;;2.10;;
10867;SDS011;62667;48.698;8.762;2022-08-19T09:28:05;2.57;;;2.37;;
10867;SDS011;62667;48.698;8.762;2022-08-19T09:30:33;1.30;;;1.23;;
10867;SDS011;62667;48.698;8.762;2022-08-19T09:33:04;1.63;;;1.53;;
10867;SDS011;62667;48.698;8.762;2022-08-19T09:35:32;2.07;;;1.97;;
10867;SDS011;62667;48.698;8.762;2022-08-19T09:38:00;2.40;;;2.20;;
10867;SDS011;62667;48.698;8.762;2022-08-19T09:40:28;2.20;;;2.00;;
10867;SDS011;62667;48.698;8.762;2022-08-19T09:42:55;2.23;;;2.13;;
10867;SDS011;62667;48.698;8.762;2022-08-19T09:45:27;1.73;;;1.63;;
10867;SDS011;62667;48.698;8.762;2022-08-19T09:47:54;2.47;;;1.83;;
10867;SDS011;62667;48.698;8.762;2022-08-19T09:50:22;1.93;;;1.70;;
10867;SDS011;62667;48.698;8.762;2022-08-19T09:52:51;2.07;;;1.97;;
10867;SDS011;62667;48.698;8.762;2022-08-19T09:55:19;1.03;;;0.97;;
10867;SDS011;62667;48.698;8.762;2022-08-19T09:57:49;1.00;;;1.00;;
10867;SDS011;62667;48.698;8.762;2022-08-19T10:00:18;8.53;;;1.80;;
10867;SDS011;62667;48.698;8.762;2022-08-19T10:02:46;1.37;;;1.37;;
10867;SDS011;62667;48.698;8.762;2022-08-19T10:05:12;1.43;;;1.43;;
10867;SDS011;62667;48.698;8.762;2022-08-19T10:08:00;2.73;;;1.70;;
10867;SDS011;62667;48.698;8.762;2022-08-19T10:10:29;1.23;;;1.23;;
10867;SDS011;62667;48.698;8.762;2022-08-19T10:13:01;1.70;;;1.60;;
10867;SDS011;62667;48.698;8.762;2022-08-19T10:15:28;2.10;;;2.00;;
10867;SDS011;62667;48.698;8.762;2022-08-19T10:17:55;1.30;;;1.30;;
10867;SDS011;62667;48.698;8.762;2022-08-19T10:20:22;1.60;;;1.50;;
10867;SDS011;62667;48.698;8.762;2022-08-19T10:22:50;1.87;;;1.77;;
10867;SDS011;62667;48.698;8.762;2022-08-19T10:25:16;2.10;;;2.00;;
10867;SDS011;62667;48.698;8.762;2022-08-19T10:27:43;1.93;;;1.83;;
10867;SDS011;62667;48.698;8.762;2022-08-19T10:30:13;1.63;;;1.52;;
10867;SDS011;62667;48.698;8.762;2022-08-19T10:32:42;1.90;;;1.30;;
10867;SDS011;62667;48.698;8.762;2022-08-19T10:35:13;6.53;;;2.03;;
10867;SDS011;62667;48.698;8.762;2022-08-19T10:37:40;2.22;;;2.13;;
10867;SDS011;62667;48.698;8.762;2022-08-19T10:40:07;1.00;;;1.00;;
10867;SDS011;62667;48.698;8.762;2022-08-19T10:42:36;0.98;;;0.98;;
10867;SDS011;62667;48.698;8.762;2022-08-19T10:45:04;2.42;;;2.25;;
10867;SDS011;62667;48.698;8.762;2022-08-19T10:47:32;2.88;;;1.85;;
10867;SDS011;62667;48.698;8.762;2022-08-19T10:49:59;5.78;;;2.42;;
10867;SDS011;62667;48.698;8.762;2022-08-19T10:52:46;1.92;;;1.83;;
10867;SDS011;62667;48.698;8.762;2022-08-19T10:55:15;1.55;;;1.45;;
10867;SDS011;62667;48.698;8.762;2022-08-19T10:58:01;1.40;;;1.35;;
10867;SDS011;62667;48.698;8.762;2022-08-19T11:00:28;0.77;;;0.77;;
10867;SDS011;62667;48.698;8.762;2022-08-19T11:02:56;1.15;;;1.15;;
10867;SDS011;62667;48.698;8.762;2022-08-19T11:05:23;1.05;;;1.05;;
10867;SDS011;62667;48.698;8.762;2022-08-19T11:07:50;0.70;;;0.70;;
10867;SDS011;62667;48.698;8.762;2022-08-19T11:10:17;1.20;;;1.20;;
10867;SDS011;62667;48.698;8.762;2022-08-19T11:12:44;1.40;;;1.30;;
10867;SDS011;62667;48.698;8.762;2022-08-19T11:15:12;1.35;;;1.35;;
10867;SDS011;62667;48.698;8.762;2022-08-19T11:17:39;1.38;;;1.30;;
10867;SDS011;62667;48.698;8.762;2022-08-19T11:20:08;1.33;;;1.25;;
10867;SDS011;62667;48.698;8.762;2022-08-19T11:22:35;1.20;;;1.20;;
10867;SDS011;62667;48.698;8.762;2022-08-19T11:25:03;0.95;;;0.95;;
10867;SDS011;62667;48.698;8.762;2022-08-19T11:27:32;0.90;;;0.90;;
10867;SDS011;62667;48.698;8.762;2022-08-19T11:30:02;0.80;;;0.80;;
10867;SDS011;62667;48.698;8.762;2022-08-19T11:32:30;0.70;;;0.70;;
10867;SDS011;62667;48.698;8.762;2022-08-19T11:34:57;1.65;;;1.55;;
10867;SDS011;62667;48.698;8.762;2022-08-19T11:37:27;0.75;;;0.75;;
10867;SDS011;62667;48.698;8.762;2022-08-19T11:39:56;1.60;;;1.50;;
10867;SDS011;62667;48.698;8.762;2022-08-19T11:42:23;1.08;;;1.08;;
10867;SDS011;62667;48.698;8.762;2022-08-19T11:45:10;2.08;;;1.25;;
10867;SDS011;62667;48.698;8.762;2022-08-19T11:47:39;1.00;;;1.00;;
10867;SDS011;62667;48.698;8.762;2022-08-19T11:50:06;0.93;;;0.93;;
10867;SDS011;62667;48.698;8.762;2022-08-19T11:52:33;0.82;;;0.82;;
10867;SDS011;62667;48.698;8.762;2022-08-19T11:55:00;1.17;;;1.17;;
10867;SDS011;62667;48.698;8.762;2022-08-19T11:57:27;0.80;;;0.80;;
10867;SDS011;62667;48.698;8.762;2022-08-19T11:59:54;1.33;;;1.33;;
10867;SDS011;62667;48.698;8.762;2022-08-19T12:02:21;1.30;;;1.23;;
10867;SDS011;62667;48.698;8.762;2022-08-19T12:04:48;0.68;;;0.68;;
10867;SDS011;62667;48.698;8.762;2022-08-19T12:07:15;1.00;;;1.00;;
10867;SDS011;62667;48.698;8.762;2022-08-19T12:09:43;2.13;;;1.40;;
10867;SDS011;62667;48.698;8.762;2022-08-19T12:12:11;1.48;;;1.40;;
10867;SDS011;62667;48.698;8.762;2022-08-19T12:14:38;1.45;;;1.35;;
10867;SDS011;62667;48.698;8.762;2022-08-19T12:17:07;1.40;;;1.40;;
10867;SDS011;62667;48.698;8.762;2022-08-19T12:19:36;1.20;;;1.20;;
10867;SDS011;62667;48.698;8.762;2022-08-19T12:22:04;0.77;;;0.77;;
10867;SDS011;62667;48.698;8.762;2022-08-19T12:24:32;1.00;;;1.00;;
10867;SDS011;62667;48.698;8.762;2022-08-19T12:27:00;1.58;;;1.00;;
10867;SDS011;62667;48.698;8.762;2022-08-19T12:29:28;0.90;;;0.90;;
10867;SDS011;62667;48.698;8.762;2022-08-19T12:31:57;1.08;;;1.08;;
10867;SDS011;62667;48.698;8.762;2022-08-19T12:34:26;1.08;;;1.08;;
10867;SDS011;62667;48.698;8.762;2022-08-19T12:36:57;3.80;;;1.95;;
10867;SDS011;62667;48.698;8.762;2022-08-19T12:39:27;1.45;;;1.38;;
10867;SDS011;62667;48.698;8.762;2022-08-19T12:41:55;0.60;;;0.60;;
10867;SDS011;62667;48.698;8.762;2022-08-19T12:44:23;0.90;;;0.90;;
10867;SDS011;62667;48.698;8.762;2022-08-19T12:46:50;1.25;;;1.25;;
10867;SDS011;62667;48.698;8.762;2022-08-19T12:49:17;0.80;;;0.80;;
10867;SDS011;62667;48.698;8.762;2022-08-19T12:51:44;1.05;;;1.05;;
10867;SDS011;62667;48.698;8.762;2022-08-19T12:54:11;1.02;;;1.02;;
10867;SDS011;62667;48.698;8.762;2022-08-19T12:56:38;0.77;;;0.77;;
10867;SDS011;62667;48.698;8.762;2022-08-19T12:59:04;1.67;;;1.60;;
10867;SDS011;62667;48.698;8.762;2022-08-19T13:01:36;1.45;;;1.35;;
10867;SDS011;62667;48.698;8.762;2022-08-19T13:04:03;1.63;;;1.52;;
10867;SDS011;62667;48.698;8.762;2022-08-19T13:06:30;1.50;;;1.50;;
10867;SDS011;62667;48.698;8.762;2022-08-19T13:08:57;1.45;;;1.05;;
10867;SDS011;62667;48.698;8.762;2022-08-19T13:11:24;1.80;;;1.70;;
10867;SDS011;62667;48.698;8.762;2022-08-19T13:13:52;1.58;;;1.40;;
10867;SDS011;62667;48.698;8.762;2022-08-19T13:16:20;0.98;;;0.98;;
10867;SDS011;62667;48.698;8.762;2022-08-19T13:18:48;0.80;;;0.80;;
10867;SDS011;62667;48.698;8.762;2022-08-19T13:21:17;2.45;;;1.48;;
10867;SDS011;62667;48.698;8.762;2022-08-19T13:23:45;1.27;;;1.27;;
10867;SDS011;62667;48.698;8.762;2022-08-19T13:26:13;1.52;;;1.42;;
10867;SDS011;62667;48.698;8.762;2022-08-19T13:28:40;1.50;;;1.40;;
10867;SDS011;62667;48.698;8.762;2022-08-19T13:31:27;0.90;;;0.90;;
10867;SDS011;62667;48.698;8.762;2022-08-19T13:34:15;1.00;;;1.00;;
10867;SDS011;62667;48.698;8.762;2022-08-19T13:36:43;1.30;;;1.30;;
10867;SDS011;62667;48.698;8.762;2022-08-19T13:39:10;1.33;;;1.33;;
10867;SDS011;62667;48.698;8.762;2022-08-19T13:41:37;0.95;;;0.95;;
10867;SDS011;62667;48.698;8.762;2022-08-19T13:44:12;2.20;;;2.05;;
10867;SDS011;62667;48.698;8.762;2022-08-19T13:46:41;1.17;;;1.17;;
10867;SDS011;62667;48.698;8.762;2022-08-19T13:49:10;0.80;;;0.80;;
10867;SDS011;62667;48.698;8.762;2022-08-19T13:51:38;1.45;;;1.45;;
10867;SDS011;62667;48.698;8.762;2022-08-19T13:54:05;0.50;;;0.50;;
10867;SDS011;62667;48.698;8.762;2022-08-19T13:56:33;0.70;;;0.70;;
10867;SDS011;62667;48.698;8.762;2022-08-19T13:59:01;2.25;;;2.15;;
10867;SDS011;62667;48.698;8.762;2022-08-19T14:01:28;1.85;;;1.75;;
10867;SDS011;62667;48.698;8.762;2022-08-19T14:03:55;1.63;;;1.52;;
10867;SDS011;62667;48.698;8.762;2022-08-19T14:06:22;1.08;;;1.08;;
10867;SDS011;62667;48.698;8.762;2022-08-19T14:08:51;2.10;;;1.95;;
10867;SDS011;62667;48.698;8.762;2022-08-19T14:11:18;1.17;;;1.17;;
10867;SDS011;62667;48.698;8.762;2022-08-19T14:13:45;2.30;;;1.33;;
10867;SDS011;62667;48.698;8.762;2022-08-19T14:16:13;1.70;;;1.20;;
10867;SDS011;62667;48.698;8.762;2022-08-19T14:18:40;1.13;;;1.13;;
10867;SDS011;62667;48.698;8.762;2022-08-19T14:21:07;1.55;;;1.48;;
10867;SDS011;62667;48.698;8.762;2022-08-19T14:23:39;1.27;;;1.27;;
10867;SDS011;62667;48.698;8.762;2022-08-19T14:26:09;1.95;;;1.85;;
10867;SDS011;62667;48.698;8.762;2022-08-19T14:28:36;0.98;;;0.98;;
10867;SDS011;62667;48.698;8.762;2022-08-19T14:31:08;1.10;;;1.10;;
10867;SDS011;62667;48.698;8.762;2022-08-19T14:33:35;1.00;;;1.00;;
10867;SDS011;62667;48.698;8.762;2022-08-19T14:36:02;1.83;;;1.73;;
10867;SDS011;62667;48.698;8.762;2022-08-19T14:38:29;1.02;;;1.02;;
10867;SDS011;62667;48.698;8.762;2022-08-19T14:41:04;0.80;;;0.80;;
10867;SDS011;62667;48.698;8.762;2022-08-19T14:43:33;1.20;;;1.20;;
10867;SDS011;62667;48.698;8.762;2022-08-19T14:46:00;1.38;;;1.33;;
10867;SDS011;62667;48.698;8.762;2022-08-19T14:48:27;0.90;;;0.90;;
10867;SDS011;62667;48.698;8.762;2022-08-19T14:50:53;1.63;;;1.52;;
10867;SDS011;62667;48.698;8.762;2022-08-19T14:53:20;0.95;;;0.95;;
10867;SDS011;62667;48.698;8.762;2022-08-19T14:55:47;1.73;;;1.63;;
10867;SDS011;62667;48.698;8.762;2022-08-19T14:58:15;0.95;;;0.95;;
10867;SDS011;62667;48.698;8.762;2022-08-19T15:00:42;1.27;;;1.27;;